Date,TemperatureHighF,TemperatureAvgF,TemperatureLowF,DewpointHighF,DewpointAvgF,DewpointLowF,HumidityHigh,HumidityAvg,HumidityLow,PressureMaxIn,PressureMinIn,WindSpeedMaxMPH,WindSpeedAvgMPH,GustSpeedMaxMPH,PrecipitationSumIn
2013-3-1,45.1,39.7,34.3,37.5,33.8,28.3,85,79,71,30.40,30.33,14,2,14,0.00
2013-3-2,51.0,43.3,36.1,36.2,32.7,29.4,82,67,48,30.38,29.99,12,2,12,0.00
2013-3-3,39.9,30.8,19.9,32.9,22.3,15.0,86,71,53,30.21,29.87,26,4,26,0.00
2013-3-4,30.9,21.6,10.0,21.4,13.2,5.8,86,71,56,30.34,30.21,8,1,8,0.00
2013-3-5,32.1,22.4,10.0,21.3,13.6,5.2,83,70,53,30.22,30.00,9,1,9,0.00
2013-3-6,35.4,28.1,21.7,29.0,23.4,17.7,88,82,76,30.01,29.80,10,1,10,0.00
2013-3-7,39.3,32.3,24.0,29.0,25.7,18.0,89,77,60,30.14,29.89,14,2,14,0.00
2013-3-8,41.5,29.9,16.3,28.3,20.0,12.5,88,68,47,30.13,30.05,13,1,13,0.00
2013-3-9,42.9,34.3,24.0,26.8,22.2,17.1,79,62,49,30.42,30.13,11,2,11,0.00
2013-3-10,43.3,32.8,22.2,29.7,23.0,17.8,85,68,46,30.42,30.24,14,2,14,0.00
2013-3-11,41.5,34.9,29.1,25.7,20.7,14.0,76,57,40,30.29,30.21,18,3,18,0.00
2013-3-12,41.3,32.8,26.2,34.9,25.3,14.3,87,74,54,30.28,30.13,14,1,14,0.00
2013-3-13,50.5,44.0,39.0,36.9,34.9,32.3,83,71,58,30.28,30.17,14,2,14,0.00
2013-3-14,55.9,45.7,35.4,38.7,33.1,28.0,80,63,44,30.25,30.09,22,2,22,0.00
2013-3-15,50.5,44.4,39.3,33.7,30.9,25.7,74,59,43,30.20,30.08,16,4,16,0.00
2013-3-16,43.3,38.1,33.6,34.4,31.2,28.0,82,76,66,30.15,29.77,15,3,15,0.00
2013-3-17,35.2,30.2,25.1,28.6,21.2,17.9,84,69,54,30.02,29.71,25,5,25,0.00
2013-3-18,33.6,27.6,22.8,22.3,19.0,16.9,82,70,57,30.12,29.98,15,4,15,0.00
2013-3-19,41.5,29.6,15.9,22.6,16.0,11.4,84,60,38,30.30,30.05,10,2,10,0.00
2013-3-20,47.4,33.9,27.1,36.6,26.3,13.9,84,74,51,30.05,29.67,16,2,16,0.00
2013-3-21,34.3,29.5,23.0,27.6,19.3,16.0,86,66,50,30.04,29.79,16,4,16,0.00
2013-3-22,33.4,24.5,16.3,21.9,17.2,11.6,84,74,49,30.23,30.03,14,2,14,0.00
2013-3-23,31.1,22.5,14.7,20.9,16.0,10.2,83,76,60,30.32,30.22,10,0,10,0.00
2013-3-24,34.3,21.8,9.6,22.1,13.9,5.4,85,73,52,30.37,30.25,7,1,7,0.00
2013-3-25,44.7,27.2,12.5,24.0,16.1,7.9,85,65,42,30.26,30.10,9,1,9,0.00
2013-3-26,48.7,31.3,20.8,28.7,20.7,15.1,83,67,43,30.11,30.05,8,1,8,0.00
2013-3-29,40.4,39.9,39.5,32.5,31.9,31.2,74,73,70,30.29,30.27,10,3,10,0.00
2013-3-30,56.8,43.3,29.8,37.6,29.7,25.4,88,62,37,30.34,30.23,14,2,14,0.00
2013-3-31,60.4,45.0,31.4,35.6,30.0,24.3,80,58,39,30.23,30.11,11,2,11,0.00